createdAt,value
2018-02-21T00:00:34.122Z,0.00
2018-02-21T00:01:40.143Z,0.00
2018-02-21T00:02:46.641Z,0.00
2018-02-21T00:03:52.687Z,0.00
2018-02-21T00:04:58.145Z,0.00
2018-02-21T00:06:04.180Z,0.00
2018-02-21T00:07:10.159Z,0.00
2018-02-21T00:08:16.164Z,0.00
2018-02-21T00:09:22.178Z,0.00
2018-02-21T00:10:28.184Z,0.00
2018-02-21T00:11:34.242Z,0.00
2018-02-21T00:12:40.214Z,0.00
2018-02-21T00:13:46.503Z,0.00
2018-02-21T00:14:52.205Z,0.00
2018-02-21T00:15:58.718Z,0.00
2018-02-21T00:17:04.246Z,0.00
2018-02-21T00:18:10.721Z,0.00
2018-02-21T00:19:16.238Z,0.00
2018-02-21T00:20:22.236Z,0.00
2018-02-21T00:21:28.294Z,0.00
2018-02-21T00:22:34.776Z,0.00
2018-02-21T00:23:40.254Z,0.00
2018-02-21T00:24:46.285Z,0.00
2018-02-21T00:25:52.276Z,0.00
2018-02-21T00:26:58.837Z,0.00
2018-02-21T00:28:04.292Z,0.00
2018-02-21T00:29:10.295Z,0.00
2018-02-21T00:30:16.306Z,0.00
2018-02-21T00:31:22.808Z,0.00
2018-02-21T00:32:28.849Z,0.00
2018-02-21T00:33:34.323Z,0.00
2018-02-21T00:34:40.337Z,0.00
2018-02-21T00:35:46.341Z,0.00
2018-02-21T00:36:52.396Z,0.00
2018-02-21T00:37:58.383Z,0.00
2018-02-21T00:39:04.376Z,0.00
2018-02-21T00:40:10.864Z,0.00
2018-02-21T00:41:16.392Z,0.00
2018-02-21T00:42:22.410Z,0.00
2018-02-21T00:43:28.397Z,0.00
2018-02-21T00:44:34.407Z,0.00
2018-02-21T00:45:40.902Z,0.00
2018-02-21T00:46:46.949Z,0.00
2018-02-21T00:47:52.456Z,0.00
2018-02-21T00:48:58.934Z,0.00
2018-02-21T00:50:04.455Z,0.00
2018-02-21T00:51:10.458Z,0.00
2018-02-21T00:52:16.481Z,0.00
2018-02-21T00:53:22.515Z,0.00
2018-02-21T00:54:28.986Z,0.00
2018-02-21T00:55:34.509Z,0.00
2018-02-21T00:56:40.999Z,0.00
2018-02-21T00:57:46.516Z,0.00
2018-02-21T00:58:52.554Z,0.00
2018-02-21T00:59:58.531Z,0.00
2018-02-21T01:01:05.543Z,0.00
2018-02-21T01:02:11.041Z,0.00
2018-02-21T01:03:16.578Z,0.00
2018-02-21T01:04:23.071Z,0.00
2018-02-21T01:05:28.578Z,0.00
2018-02-21T01:06:35.172Z,0.00
2018-02-21T01:07:41.157Z,0.00
2018-02-21T01:08:46.647Z,0.00
2018-02-21T01:09:52.617Z,0.00
2018-02-21T01:10:59.159Z,0.00
2018-02-21T01:12:04.642Z,0.00
2018-02-21T01:13:10.688Z,0.00
2018-02-21T01:14:16.666Z,0.00
2018-02-21T01:15:22.711Z,0.00
2018-02-21T01:16:29.199Z,0.00
2018-02-21T01:17:34.707Z,0.00
2018-02-21T01:18:41.234Z,0.00
2018-02-21T01:19:47.722Z,0.00
2018-02-21T01:20:52.750Z,0.00
2018-02-21T01:21:59.267Z,0.00
2018-02-21T01:23:05.259Z,0.00
2018-02-21T01:24:11.504Z,0.00
2018-02-21T01:25:17.284Z,0.00
2018-02-21T01:26:23.001Z,0.00
2018-02-21T01:27:28.825Z,0.00
2018-02-21T01:28:36.355Z,0.00
2018-02-21T01:29:40.860Z,0.00
2018-02-21T01:30:46.868Z,0.00
2018-02-21T01:31:53.379Z,0.00
2018-02-21T01:32:59.385Z,0.00
2018-02-21T01:34:05.426Z,0.00
2018-02-21T01:35:11.411Z,0.00
2018-02-21T01:36:16.941Z,0.00
2018-02-21T01:37:23.446Z,0.00
2018-02-21T01:38:28.967Z,0.00
2018-02-21T01:39:35.496Z,0.00
2018-02-21T01:40:40.990Z,0.00
2018-02-21T01:41:47.515Z,0.00
2018-02-21T01:42:53.025Z,0.00
2018-02-21T01:43:59.542Z,0.00
2018-02-21T01:45:05.090Z,0.00
2018-02-21T01:46:11.158Z,0.00
2018-02-21T01:47:17.166Z,0.00
2018-02-21T01:48:23.607Z,0.00
2018-02-21T01:49:29.144Z,0.00
2018-02-21T01:50:35.132Z,0.00
2018-02-21T01:51:41.642Z,0.00
2018-02-21T01:52:47.159Z,0.00
2018-02-21T01:53:53.669Z,0.00
2018-02-21T01:54:59.714Z,0.00
2018-02-21T01:56:05.201Z,0.00
2018-02-21T01:57:11.223Z,0.00
2018-02-21T01:58:17.238Z,0.00
2018-02-21T01:59:23.756Z,0.00
2018-02-21T02:00:29.762Z,0.00
2018-02-21T02:01:35.774Z,0.00
2018-02-21T02:02:42.289Z,0.00
2018-02-21T02:03:47.808Z,0.00
2018-02-21T02:04:54.351Z,0.00
2018-02-21T02:05:59.842Z,0.00
2018-02-21T02:07:05.862Z,0.00
2018-02-21T02:08:12.833Z,0.00
2018-02-21T02:09:17.904Z,0.00
2018-02-21T02:10:23.446Z,0.00
2018-02-21T02:11:29.436Z,0.00
2018-02-21T02:12:35.963Z,0.00
2018-02-21T02:13:41.959Z,0.00
2018-02-21T02:14:47.998Z,0.00
2018-02-21T02:15:53.508Z,0.00
2018-02-21T02:17:00.011Z,0.00
2018-02-21T02:18:05.544Z,0.00
2018-02-21T02:19:12.065Z,0.00
2018-02-21T02:20:17.611Z,0.00
2018-02-21T02:21:24.098Z,0.00
2018-02-21T02:22:29.629Z,0.00
2018-02-21T02:23:35.628Z,0.00
2018-02-21T02:24:42.156Z,0.00
2018-02-21T02:25:47.673Z,0.00
2018-02-21T02:26:54.181Z,0.00
2018-02-21T02:27:59.692Z,0.00
2018-02-21T02:29:06.511Z,0.00
2018-02-21T02:30:11.749Z,0.00
2018-02-21T02:31:17.739Z,0.00
2018-02-21T02:32:24.248Z,0.00
2018-02-21T02:33:30.272Z,0.00
2018-02-21T02:34:36.302Z,0.00
2018-02-21T02:35:42.289Z,0.00
2018-02-21T02:36:48.319Z,0.00
2018-02-21T02:37:54.327Z,0.00
2018-02-21T02:39:00.342Z,0.00
2018-02-21T02:40:05.894Z,0.00
2018-02-21T02:41:11.893Z,0.00
2018-02-21T02:42:18.404Z,0.00
2018-02-21T02:43:24.413Z,0.00
2018-02-21T02:44:30.414Z,0.00
2018-02-21T02:45:36.460Z,0.00
2018-02-21T02:46:41.961Z,0.00
2018-02-21T02:47:48.482Z,0.00
2018-02-21T02:48:54.481Z,0.00
2018-02-21T02:50:00.533Z,0.00
2018-02-21T02:51:06.529Z,0.00
2018-02-21T02:52:12.534Z,0.00
2018-02-21T02:53:18.057Z,0.00
2018-02-21T02:54:24.575Z,0.00
2018-02-21T02:55:30.121Z,0.00
2018-02-21T02:56:36.121Z,0.00
2018-02-21T02:57:42.124Z,0.00
2018-02-21T02:58:48.627Z,0.00
2018-02-21T02:59:54.171Z,0.00
2018-02-21T03:01:00.666Z,0.00
2018-02-21T03:02:06.676Z,0.00
2018-02-21T03:03:12.694Z,0.00
2018-02-21T03:04:18.695Z,0.00
2018-02-21T03:05:24.241Z,0.00
2018-02-21T03:06:30.742Z,0.00
2018-02-21T03:07:36.243Z,0.00
2018-02-21T03:08:42.259Z,0.00
2018-02-21T03:09:48.784Z,0.00
2018-02-21T03:10:54.315Z,0.00
2018-02-21T03:12:00.305Z,0.00
2018-02-21T03:13:06.829Z,0.00
2018-02-21T03:14:12.835Z,0.00
2018-02-21T03:15:18.882Z,0.00
2018-02-21T03:16:24.869Z,0.00
2018-02-21T03:17:30.886Z,0.00
2018-02-21T03:18:36.414Z,0.00
2018-02-21T03:19:42.422Z,0.00
2018-02-21T03:20:48.470Z,0.00
2018-02-21T03:21:54.938Z,0.00
2018-02-21T03:23:00.456Z,0.00
2018-02-21T03:24:06.970Z,0.00
2018-02-21T03:25:12.997Z,0.00
2018-02-21T03:26:19.010Z,0.00
2018-02-21T03:27:25.016Z,0.00
2018-02-21T03:28:31.015Z,0.00
2018-02-21T03:29:36.544Z,0.00
2018-02-21T03:30:43.166Z,0.00
2018-02-21T03:31:48.568Z,0.00
2018-02-21T03:32:55.153Z,0.00
2018-02-21T03:34:01.149Z,0.00
2018-02-21T03:35:06.638Z,0.00
2018-02-21T03:36:12.624Z,0.00
2018-02-21T03:37:19.150Z,0.00
2018-02-21T03:38:25.195Z,0.00
2018-02-21T03:39:30.670Z,0.00
2018-02-21T03:40:37.190Z,0.00
2018-02-21T03:41:42.688Z,0.00
2018-02-21T03:42:49.212Z,0.00
2018-02-21T03:43:54.721Z,0.00
2018-02-21T03:45:01.247Z,0.00
2018-02-21T03:46:06.751Z,0.00
2018-02-21T03:47:13.245Z,0.00
2018-02-21T03:48:19.259Z,0.00
2018-02-21T03:49:25.276Z,0.00
2018-02-21T03:50:30.809Z,0.00
2018-02-21T03:51:37.306Z,0.00
2018-02-21T03:52:43.305Z,0.00
2018-02-21T03:53:49.327Z,0.00
2018-02-21T03:54:55.319Z,0.00
2018-02-21T03:56:01.350Z,0.00
2018-02-21T03:57:06.838Z,0.00
2018-02-21T03:58:12.851Z,0.00
2018-02-21T03:59:19.339Z,0.00
2018-02-21T04:00:25.385Z,0.00
2018-02-21T04:01:30.855Z,0.00
2018-02-21T04:02:37.346Z,0.00
2018-02-21T04:03:43.338Z,0.00
2018-02-21T04:04:48.850Z,0.00
2018-02-21T04:05:55.356Z,0.00
2018-02-21T04:07:00.867Z,0.00
2018-02-21T04:08:07.350Z,0.00
2018-02-21T04:09:14.330Z,0.00
2018-02-21T04:10:19.372Z,0.00
2018-02-21T04:11:25.333Z,0.00
2018-02-21T04:12:31.363Z,0.00
2018-02-21T04:13:37.336Z,0.00
2018-02-21T04:14:43.338Z,0.00
2018-02-21T04:15:48.848Z,0.00
2018-02-21T04:16:54.816Z,0.00
2018-02-21T04:18:01.311Z,0.00
2018-02-21T04:19:07.313Z,0.00
2018-02-21T04:20:13.342Z,0.00
2018-02-21T04:21:19.287Z,0.00
2018-02-21T04:22:25.286Z,0.00
2018-02-21T04:23:31.278Z,0.00
2018-02-21T04:24:36.764Z,0.00
2018-02-21T04:25:44.270Z,0.00
2018-02-21T04:26:48.746Z,0.00
2018-02-21T04:27:55.239Z,0.00
2018-02-21T04:29:01.230Z,0.00
2018-02-21T04:30:07.208Z,0.00
2018-02-21T04:31:13.728Z,0.00
2018-02-21T04:32:19.206Z,0.00
2018-02-21T04:33:24.700Z,0.00
2018-02-21T04:34:30.683Z,0.00
2018-02-21T04:35:36.695Z,0.00
2018-02-21T04:36:42.649Z,0.00
2018-02-21T04:37:48.631Z,0.00
2018-02-21T04:38:55.167Z,0.00
2018-02-21T04:40:00.600Z,0.00
2018-02-21T04:41:07.188Z,0.00
2018-02-21T04:42:13.049Z,0.00
2018-02-21T04:43:19.037Z,0.00
2018-02-21T04:44:24.530Z,0.00
2018-02-21T04:45:31.006Z,0.00
2018-02-21T04:46:36.485Z,0.00
2018-02-21T04:47:42.448Z,0.00
2018-02-21T04:48:48.426Z,0.00
2018-02-21T04:49:54.431Z,0.00
2018-02-21T04:51:00.939Z,0.00
2018-02-21T04:52:06.876Z,0.00
2018-02-21T04:53:12.839Z,0.00
2018-02-21T04:54:18.843Z,0.00
2018-02-21T04:55:24.825Z,0.00
2018-02-21T04:56:30.296Z,0.00
2018-02-21T04:57:36.762Z,0.00
2018-02-21T04:58:42.753Z,0.00
2018-02-21T04:59:48.240Z,0.00
2018-02-21T05:00:54.725Z,0.00
2018-02-21T05:02:00.679Z,0.00
2018-02-21T05:03:06.654Z,0.00
2018-02-21T05:04:12.476Z,0.00
2018-02-21T05:05:18.096Z,0.00
2018-02-21T05:06:24.145Z,0.00
2018-02-21T05:07:30.074Z,0.00
2018-02-21T05:08:36.532Z,0.00
2018-02-21T05:09:42.504Z,0.00
2018-02-21T05:10:48.518Z,0.00
2018-02-21T05:11:54.563Z,0.00
2018-02-21T05:13:00.434Z,0.00
2018-02-21T05:14:06.431Z,0.00
2018-02-21T05:15:12.429Z,0.00
2018-02-21T05:16:18.400Z,0.00
2018-02-21T05:17:24.382Z,0.00
2018-02-21T05:18:30.355Z,0.00
2018-02-21T05:19:36.366Z,0.00
2018-02-21T05:20:42.288Z,0.00
2018-02-21T05:21:49.316Z,0.00
2018-02-21T05:22:54.267Z,0.00
2018-02-21T05:24:00.223Z,0.00
2018-02-21T05:25:05.708Z,0.00
2018-02-21T05:26:11.730Z,0.00
2018-02-21T05:27:17.676Z,0.00
2018-02-21T05:28:23.636Z,0.00
2018-02-21T05:29:29.622Z,0.00
2018-02-21T05:30:36.138Z,0.00
2018-02-21T05:31:42.073Z,0.00
2018-02-21T05:32:48.059Z,0.00
2018-02-21T05:33:54.016Z,0.00
2018-02-21T05:34:59.481Z,0.00
2018-02-21T05:36:05.974Z,0.00
2018-02-21T05:37:11.944Z,0.00
2018-02-21T05:38:17.933Z,0.00
2018-02-21T05:39:23.886Z,0.00
2018-02-21T05:40:29.350Z,0.00
2018-02-21T05:41:35.348Z,0.00
2018-02-21T05:42:41.847Z,0.00
2018-02-21T05:43:47.767Z,0.00
2018-02-21T05:44:53.263Z,0.00
2018-02-21T05:45:59.768Z,0.00
2018-02-21T05:47:05.288Z,0.00
2018-02-21T05:48:11.684Z,0.00
2018-02-21T05:49:17.647Z,0.00
2018-02-21T05:50:23.612Z,0.00
2018-02-21T05:51:29.643Z,0.00
2018-02-21T05:52:35.579Z,0.00
2018-02-21T05:53:41.570Z,0.00
2018-02-21T05:54:47.542Z,0.00
2018-02-21T05:55:53.530Z,0.00
2018-02-21T05:56:59.532Z,0.00
2018-02-21T05:58:05.449Z,0.00
2018-02-21T05:59:11.401Z,0.00
2018-02-21T06:00:17.408Z,0.00
2018-02-21T06:01:23.389Z,0.00
2018-02-21T06:02:29.338Z,0.00
2018-02-21T06:03:35.343Z,0.00
2018-02-21T06:04:41.298Z,0.00
2018-02-21T06:05:47.370Z,0.00
2018-02-21T06:06:53.258Z,0.00
2018-02-21T06:07:59.191Z,0.00
2018-02-21T06:09:05.187Z,0.00
2018-02-21T06:10:11.161Z,0.00
2018-02-21T06:11:17.222Z,0.00
2018-02-21T06:12:23.160Z,0.00
2018-02-21T06:13:28.595Z,0.00
2018-02-21T06:14:35.111Z,0.00
2018-02-21T06:15:40.996Z,0.00
2018-02-21T06:16:46.976Z,0.00
2018-02-21T06:17:52.924Z,0.00
2018-02-21T06:18:58.394Z,5.63
2018-02-21T06:20:04.370Z,5.63
2018-02-21T06:21:10.833Z,5.63
2018-02-21T06:22:16.336Z,5.63
2018-02-21T06:23:22.787Z,5.63
2018-02-21T06:24:28.260Z,5.63
2018-02-21T06:25:34.215Z,11.25
2018-02-21T06:26:40.220Z,11.25
2018-02-21T06:27:46.704Z,11.25
2018-02-21T06:28:52.656Z,11.25
2018-02-21T06:29:58.604Z,11.25
2018-02-21T06:31:04.075Z,16.88
2018-02-21T06:32:10.634Z,16.88
2018-02-21T06:33:17.501Z,16.88
2018-02-21T06:34:22.510Z,22.50
2018-02-21T06:35:28.474Z,22.50
2018-02-21T06:36:34.476Z,22.50
2018-02-21T06:37:40.455Z,22.50
2018-02-21T06:38:46.006Z,28.13
2018-02-21T06:39:51.874Z,28.13
2018-02-21T06:40:58.369Z,28.13
2018-02-21T06:42:04.349Z,33.75
2018-02-21T06:43:09.816Z,33.75
2018-02-21T06:44:16.255Z,33.75
2018-02-21T06:45:21.754Z,39.38
2018-02-21T06:46:28.220Z,39.38
2018-02-21T06:47:34.235Z,39.38
2018-02-21T06:48:40.170Z,45.00
2018-02-21T06:49:46.150Z,45.00
2018-02-21T06:50:51.632Z,50.63
2018-02-21T06:51:58.138Z,50.63
2018-02-21T06:53:04.116Z,50.63
2018-02-21T06:54:10.104Z,56.25
2018-02-21T06:55:16.027Z,56.25
2018-02-21T06:56:22.040Z,61.88
2018-02-21T06:57:27.720Z,61.88
2018-02-21T06:58:33.969Z,61.88
2018-02-21T06:59:39.473Z,67.50
2018-02-21T07:00:45.928Z,67.50
2018-02-21T07:01:51.567Z,67.50
2018-02-21T07:02:58.009Z,73.13
2018-02-21T07:04:03.428Z,73.13
2018-02-21T07:05:09.376Z,73.13
2018-02-21T07:06:15.873Z,78.75
2018-02-21T07:07:21.909Z,78.75
2018-02-21T07:08:27.838Z,78.75
2018-02-21T07:09:33.838Z,84.38
2018-02-21T07:10:39.497Z,84.38
2018-02-21T07:11:45.799Z,84.38
2018-02-21T07:12:51.765Z,90.00
2018-02-21T07:13:57.746Z,90.00
2018-02-21T07:15:03.328Z,90.00
2018-02-21T07:16:09.731Z,95.63
2018-02-21T07:17:16.708Z,95.63
2018-02-21T07:18:21.711Z,101.25
2018-02-21T07:19:27.199Z,101.25
2018-02-21T07:20:33.693Z,101.25
2018-02-21T07:21:39.152Z,101.25
2018-02-21T07:22:45.681Z,101.25
2018-02-21T07:23:51.648Z,101.25
2018-02-21T07:24:57.676Z,101.25
2018-02-21T07:26:03.199Z,101.25
2018-02-21T07:27:09.660Z,106.88
2018-02-21T07:28:15.579Z,106.88
2018-02-21T07:29:21.594Z,106.88
2018-02-21T07:30:28.615Z,106.88
2018-02-21T07:31:33.157Z,112.50
2018-02-21T07:32:39.606Z,112.50
2018-02-21T07:33:45.609Z,112.50
2018-02-21T07:34:51.561Z,112.50
2018-02-21T07:37:03.613Z,118.13
2018-02-21T07:38:09.147Z,118.13
2018-02-21T07:39:15.068Z,123.75
2018-02-21T07:40:21.561Z,123.75
2018-02-21T07:41:27.080Z,123.75
2018-02-21T07:42:33.547Z,123.75
2018-02-21T07:43:39.536Z,123.75
2018-02-21T07:44:45.567Z,123.75
2018-02-21T07:45:51.522Z,129.38
2018-02-21T07:46:57.590Z,129.38
2018-02-21T07:48:03.577Z,129.38
2018-02-21T07:49:09.566Z,135.00
2018-02-21T07:50:15.559Z,135.00
2018-02-21T07:51:21.536Z,140.63
2018-02-21T07:52:27.065Z,140.63
2018-02-21T07:53:33.560Z,140.63
2018-02-21T07:54:40.029Z,140.63
2018-02-21T07:55:45.090Z,146.25
2018-02-21T07:56:51.211Z,146.25
2018-02-21T07:57:57.611Z,146.25
2018-02-21T07:59:03.069Z,146.25
2018-02-21T08:00:09.579Z,140.63
2018-02-21T08:01:15.562Z,140.63
2018-02-21T08:02:21.618Z,140.63
2018-02-21T08:03:27.643Z,140.63
2018-02-21T08:04:33.581Z,146.25
2018-02-21T08:05:39.602Z,146.25
2018-02-21T08:06:45.679Z,146.25
2018-02-21T08:07:51.156Z,146.25
2018-02-21T08:08:57.634Z,146.25
2018-02-21T08:10:03.710Z,151.88
2018-02-21T08:11:09.668Z,151.88
2018-02-21T08:12:15.677Z,151.88
2018-02-21T08:13:21.181Z,151.88
2018-02-21T08:14:27.693Z,151.88
2018-02-21T08:15:33.699Z,157.50
2018-02-21T08:16:39.760Z,151.88
2018-02-21T08:17:45.724Z,157.50
2018-02-21T08:18:51.250Z,157.50
2018-02-21T08:19:57.788Z,157.50
2018-02-21T08:21:03.252Z,157.50
2018-02-21T08:22:09.772Z,151.88
2018-02-21T08:23:15.306Z,157.50
2018-02-21T08:24:21.876Z,157.50
2018-02-21T08:25:27.820Z,157.50
2018-02-21T08:26:33.849Z,157.50
2018-02-21T08:27:39.887Z,157.50
2018-02-21T08:28:45.871Z,157.50
2018-02-21T08:29:51.942Z,157.50
2018-02-21T08:30:57.894Z,157.50
2018-02-21T08:32:03.939Z,157.50
2018-02-21T08:33:10.003Z,157.50
2018-02-21T08:34:15.953Z,157.50
2018-02-21T08:35:21.952Z,157.50
2018-02-21T08:36:27.980Z,157.50
2018-02-21T08:37:33.530Z,157.50
2018-02-21T08:38:40.049Z,163.13
2018-02-21T08:39:46.046Z,163.13
2018-02-21T08:40:52.078Z,163.13
2018-02-21T08:41:58.077Z,163.13
2018-02-21T08:43:04.123Z,168.75
2018-02-21T08:44:10.185Z,168.75
2018-02-21T08:45:16.166Z,168.75
2018-02-21T08:46:22.209Z,163.13
2018-02-21T08:47:28.279Z,168.75
2018-02-21T08:48:34.235Z,168.75
2018-02-21T08:49:40.254Z,168.75
2018-02-21T08:50:46.261Z,168.75
2018-02-21T08:51:52.275Z,174.38
2018-02-21T08:52:58.334Z,174.38
2018-02-21T08:54:04.344Z,174.38
2018-02-21T08:55:10.406Z,174.38
2018-02-21T08:56:16.385Z,174.38
2018-02-21T08:57:22.434Z,174.38
2018-02-21T08:58:28.461Z,174.38
2018-02-21T08:59:34.495Z,174.38
2018-02-21T09:01:46.613Z,180.00
2018-02-21T09:02:52.611Z,180.00
2018-02-21T09:03:58.624Z,180.00
2018-02-21T09:05:04.656Z,196.88
2018-02-21T09:06:10.721Z,185.63
2018-02-21T09:07:16.772Z,180.00
2018-02-21T09:08:23.903Z,180.00
2018-02-21T09:09:28.877Z,180.00
2018-02-21T09:10:34.893Z,180.00
2018-02-21T09:11:40.977Z,185.63
2018-02-21T09:12:48.075Z,185.63
2018-02-21T09:13:52.565Z,185.63
2018-02-21T09:14:58.649Z,185.63
2018-02-21T09:16:05.170Z,185.63
2018-02-21T09:17:10.880Z,185.63
2018-02-21T09:18:17.542Z,191.25
2018-02-21T09:19:23.374Z,191.25
2018-02-21T09:20:29.421Z,191.25
2018-02-21T09:21:35.529Z,185.63
2018-02-21T09:22:41.558Z,185.63
2018-02-21T09:23:47.637Z,185.63
2018-02-21T09:24:53.739Z,185.63
2018-02-21T09:26:00.810Z,180.00
2018-02-21T09:27:05.887Z,180.00
2018-02-21T09:28:11.879Z,185.63
2018-02-21T09:29:17.974Z,180.00
2018-02-21T09:32:36.150Z,180.00
2018-02-21T09:33:42.181Z,180.00
2018-02-21T09:34:49.277Z,180.00
2018-02-21T09:35:54.302Z,180.00
2018-02-21T09:37:00.433Z,180.00
2018-02-21T09:38:07.471Z,180.00
2018-02-21T09:39:12.568Z,180.00
2018-02-21T09:40:18.634Z,185.63
2018-02-21T09:41:24.713Z,185.63
2018-02-21T09:42:30.960Z,185.63
2018-02-21T09:43:36.816Z,185.63
2018-02-21T09:44:43.949Z,174.38
2018-02-21T09:45:49.078Z,174.38
2018-02-21T09:46:55.037Z,174.38
2018-02-21T09:48:01.261Z,174.38
2018-02-21T09:49:08.235Z,174.38
2018-02-21T09:50:14.275Z,174.38
2018-02-21T09:51:19.319Z,174.38
2018-02-21T09:52:26.412Z,174.38
2018-02-21T09:53:31.446Z,174.38
2018-02-21T09:54:37.515Z,174.38
2018-02-21T09:55:44.006Z,180.00
2018-02-21T09:56:49.946Z,185.63
2018-02-21T09:57:55.889Z,185.63
2018-02-21T09:59:01.773Z,196.88
2018-02-21T10:00:07.811Z,208.13
2018-02-21T10:01:13.887Z,219.38
2018-02-21T10:02:20.023Z,225.00
2018-02-21T10:03:26.039Z,230.63
2018-02-21T10:04:32.052Z,241.88
2018-02-21T10:07:49.804Z,247.50
2018-02-21T10:10:02.776Z,253.13
2018-02-21T10:11:07.964Z,258.75
2018-02-21T10:12:15.667Z,258.75
2018-02-21T10:13:20.873Z,258.75
2018-02-21T10:14:26.734Z,258.75
2018-02-21T10:15:32.847Z,264.38
2018-02-21T10:16:38.886Z,264.38
2018-02-21T10:17:46.004Z,264.38
2018-02-21T10:19:57.172Z,264.38
2018-02-21T10:21:03.605Z,275.63
2018-02-21T10:22:09.368Z,275.63
2018-02-21T10:23:15.461Z,270.00
2018-02-21T10:24:21.630Z,270.00
2018-02-21T10:25:27.649Z,264.38
2018-02-21T10:26:34.755Z,264.38
2018-02-21T10:27:39.887Z,258.75
2018-02-21T10:28:45.986Z,258.75
2018-02-21T10:32:45.772Z,236.25
2018-02-21T10:33:51.813Z,236.25
2018-02-21T10:34:57.919Z,230.63
2018-02-21T10:36:04.013Z,230.63
2018-02-21T10:37:10.122Z,225.00
2018-02-21T10:38:16.276Z,219.38
2018-02-21T10:39:22.362Z,213.75
2018-02-21T10:40:29.156Z,208.13
2018-02-21T10:41:34.595Z,208.13
2018-02-21T10:42:41.308Z,208.13
2018-02-21T10:43:46.825Z,202.50
2018-02-21T10:44:52.962Z,202.50
2018-02-21T10:45:59.174Z,196.88
2018-02-21T10:47:05.293Z,180.00
2018-02-21T10:48:11.314Z,180.00
2018-02-21T10:49:17.421Z,174.38
2018-02-21T10:50:23.527Z,180.00
2018-02-21T10:51:29.704Z,185.63
2018-02-21T10:52:35.788Z,185.63
2018-02-21T10:53:41.874Z,185.63
2018-02-21T10:54:47.995Z,185.63
2018-02-21T10:55:54.140Z,180.00
2018-02-21T10:57:00.266Z,174.38
2018-02-21T10:58:06.377Z,174.38
2018-02-21T10:59:12.442Z,168.75
2018-02-21T11:00:18.609Z,180.00
2018-02-21T11:01:24.718Z,180.00
2018-02-21T11:02:30.784Z,185.63
2018-02-21T11:03:36.912Z,191.25
2018-02-21T11:04:43.025Z,196.88
2018-02-21T11:05:49.170Z,202.50
2018-02-21T11:06:55.250Z,202.50
2018-02-21T11:08:01.396Z,196.88
2018-02-21T11:09:07.477Z,196.88
2018-02-21T11:10:13.612Z,202.50
2018-02-21T11:11:19.702Z,202.50
2018-02-21T11:12:25.819Z,202.50
2018-02-21T11:13:31.969Z,208.13
2018-02-21T11:14:38.557Z,208.13
2018-02-21T11:15:43.685Z,213.75
2018-02-21T11:16:50.295Z,208.13
2018-02-21T11:17:57.433Z,202.50
2018-02-21T11:19:02.535Z,202.50
2018-02-21T11:20:08.166Z,202.50
2018-02-21T11:21:14.788Z,202.50
2018-02-21T11:22:20.412Z,208.13
2018-02-21T11:23:26.581Z,208.13
2018-02-21T11:24:33.167Z,202.50
2018-02-21T11:25:38.780Z,202.50
2018-02-21T11:26:44.909Z,202.50
2018-02-21T11:27:51.049Z,208.13
2018-02-21T11:28:57.923Z,213.75
2018-02-21T11:30:03.280Z,208.13
2018-02-21T11:31:09.389Z,202.50
2018-02-21T11:32:16.009Z,202.50
2018-02-21T11:33:21.664Z,202.50
2018-02-21T11:34:28.276Z,208.13
2018-02-21T11:35:34.389Z,208.13
2018-02-21T11:36:40.055Z,208.13
2018-02-21T11:37:46.768Z,213.75
2018-02-21T11:38:52.282Z,213.75
2018-02-21T11:39:58.903Z,219.38
2018-02-21T11:41:05.042Z,225.00
2018-02-21T11:42:10.685Z,225.00
2018-02-21T11:43:16.860Z,230.63
2018-02-21T11:44:23.501Z,230.63
2018-02-21T11:45:29.194Z,236.25
2018-02-21T11:46:35.890Z,253.13
2018-02-21T11:47:41.627Z,298.13
2018-02-21T11:48:48.350Z,337.50
2018-02-21T11:49:54.088Z,354.38
2018-02-21T11:51:00.342Z,348.75
2018-02-21T11:52:07.151Z,354.38
2018-02-21T11:53:13.424Z,354.38
2018-02-21T11:54:19.680Z,354.38
2018-02-21T11:55:25.498Z,360.00
2018-02-21T11:56:31.825Z,354.38
2018-02-21T11:57:38.640Z,354.38
2018-02-21T11:58:44.502Z,354.38
2018-02-21T11:59:50.830Z,354.38
2018-02-21T12:00:57.199Z,354.38
2018-02-21T12:02:03.554Z,354.38
2018-02-21T12:03:09.937Z,360.00
2018-02-21T12:04:16.788Z,360.00
2018-02-21T12:05:22.672Z,360.00
2018-02-21T12:06:29.163Z,360.00
2018-02-21T12:07:35.937Z,360.00
2018-02-21T12:08:42.377Z,354.38
2018-02-21T12:09:48.250Z,354.38
2018-02-21T12:10:54.663Z,348.75
2018-02-21T12:12:01.207Z,354.38
2018-02-21T12:13:07.518Z,354.38
2018-02-21T12:14:14.401Z,348.75
2018-02-21T12:15:20.835Z,354.38
2018-02-21T12:16:27.510Z,348.75
2018-02-21T12:18:39.655Z,354.38
2018-02-21T12:19:46.075Z,360.00
2018-02-21T12:20:52.536Z,365.63
2018-02-21T12:21:59.482Z,360.00
2018-02-21T12:23:05.961Z,360.00
2018-02-21T12:24:11.877Z,354.38
2018-02-21T12:25:18.333Z,348.75
2018-02-21T12:26:25.283Z,365.63
2018-02-21T12:27:31.243Z,354.38
2018-02-21T12:28:37.732Z,354.38
2018-02-21T12:29:44.169Z,354.38
2018-02-21T12:30:50.649Z,360.00
2018-02-21T12:31:57.113Z,360.00
2018-02-21T12:33:03.605Z,354.38
2018-02-21T12:34:10.066Z,360.00
2018-02-21T12:35:17.550Z,354.38
2018-02-21T12:36:23.038Z,360.00
2018-02-21T12:37:30.023Z,354.38
2018-02-21T12:38:36.526Z,360.00
2018-02-21T12:39:42.985Z,354.38
2018-02-21T12:40:48.986Z,360.00
2018-02-21T12:41:55.466Z,360.00
2018-02-21T12:43:02.480Z,354.38
2018-02-21T12:44:08.960Z,365.63
2018-02-21T12:45:15.435Z,360.00
2018-02-21T12:46:21.906Z,360.00
2018-02-21T12:47:27.908Z,354.38
2018-02-21T12:48:34.408Z,360.00
2018-02-21T12:49:41.368Z,360.00
2018-02-21T12:50:47.363Z,360.00
2018-02-21T12:51:53.850Z,360.00
2018-02-21T12:53:00.398Z,360.00
2018-02-21T12:54:06.811Z,365.63
2018-02-21T12:55:13.293Z,360.00
2018-02-21T12:56:19.789Z,360.00
2018-02-21T12:57:26.276Z,354.38
2018-02-21T12:58:32.803Z,354.38
2018-02-21T12:59:39.783Z,348.75
2018-02-21T13:00:45.796Z,354.38
2018-02-21T13:01:52.269Z,360.00
2018-02-21T13:02:58.755Z,360.00
2018-02-21T13:04:05.262Z,360.00
2018-02-21T13:05:12.744Z,360.00
2018-02-21T13:06:18.250Z,365.63
2018-02-21T13:07:24.755Z,371.25
2018-02-21T13:08:31.272Z,371.25
2018-02-21T13:09:38.923Z,371.25
2018-02-21T13:10:44.282Z,376.88
2018-02-21T13:11:51.336Z,388.13
2018-02-21T13:12:57.338Z,393.75
2018-02-21T13:14:04.366Z,393.75
2018-02-21T13:15:10.372Z,393.75
2018-02-21T13:16:17.399Z,388.13
2018-02-21T13:17:23.440Z,393.75
2018-02-21T13:18:29.988Z,388.13
2018-02-21T13:19:36.521Z,388.13
2018-02-21T13:20:43.547Z,388.13
2018-02-21T13:21:50.099Z,388.13
2018-02-21T13:22:56.629Z,388.13
2018-02-21T13:24:02.706Z,388.13
2018-02-21T13:25:09.230Z,382.50
2018-02-21T13:26:16.278Z,388.13
2018-02-21T13:27:22.357Z,382.50
2018-02-21T13:28:29.397Z,382.50
2018-02-21T13:29:35.437Z,382.50
2018-02-21T13:30:41.985Z,382.50
2018-02-21T13:31:49.041Z,382.50
2018-02-21T13:32:55.105Z,382.50
2018-02-21T13:34:02.190Z,382.50
2018-02-21T13:35:08.707Z,382.50
2018-02-21T13:36:15.259Z,376.88
2018-02-21T13:37:21.316Z,376.88
2018-02-21T13:38:27.895Z,376.88
2018-02-21T13:39:34.905Z,376.88
2018-02-21T13:40:40.947Z,365.63
2018-02-21T13:41:47.484Z,371.25
2018-02-21T13:42:54.528Z,365.63
2018-02-21T13:44:01.188Z,365.63
2018-02-21T13:45:07.630Z,360.00
2018-02-21T13:46:13.630Z,360.00
2018-02-21T13:47:20.168Z,360.00
2018-02-21T13:48:26.723Z,354.38
2018-02-21T13:49:33.234Z,354.38
2018-02-21T13:50:39.758Z,354.38
2018-02-21T13:51:46.284Z,348.75
2018-02-21T13:52:52.797Z,354.38
2018-02-21T13:53:59.329Z,348.75
2018-02-21T13:55:06.314Z,348.75
2018-02-21T13:56:12.353Z,348.75
2018-02-21T13:57:19.349Z,343.13
2018-02-21T13:58:25.378Z,348.75
2018-02-21T13:59:32.857Z,348.75
2018-02-21T14:00:38.874Z,348.75
2018-02-21T14:01:44.867Z,360.00
2018-02-21T14:02:51.395Z,365.63
2018-02-21T14:03:57.900Z,371.25
2018-02-21T14:05:04.368Z,365.63
2018-02-21T14:06:10.869Z,365.63
2018-02-21T14:07:17.349Z,365.63
2018-02-21T14:08:23.864Z,371.25
2018-02-21T14:09:30.322Z,376.88
2018-02-21T14:10:36.804Z,376.88
2018-02-21T14:11:43.766Z,382.50
2018-02-21T14:12:49.762Z,388.13
2018-02-21T14:13:56.259Z,399.38
2018-02-21T14:15:02.694Z,405.00
2018-02-21T14:16:09.181Z,405.00
2018-02-21T14:17:16.121Z,405.00
2018-02-21T14:18:23.193Z,399.38
2018-02-21T14:19:28.568Z,393.75
2018-02-21T14:20:35.030Z,376.88
2018-02-21T14:21:41.493Z,360.00
2018-02-21T14:22:47.955Z,343.13